createdAt,value
2023-04-16T00:02:07.773Z,6.41
2023-04-16T00:04:36.330Z,6.43
2023-04-16T00:07:04.736Z,6.42
2023-04-16T00:09:33.120Z,6.44
2023-04-16T00:12:01.479Z,6.44
2023-04-16T00:14:30.728Z,6.43
2023-04-16T00:16:59.149Z,6.39
2023-04-16T00:19:29.020Z,6.41
2023-04-16T00:21:57.365Z,6.39
2023-04-16T00:24:25.744Z,6.37
2023-04-16T00:26:54.115Z,6.38
2023-04-16T00:29:22.519Z,6.39
2023-04-16T00:31:50.998Z,6.39
2023-04-16T00:34:19.408Z,6.40
2023-04-16T00:36:49.251Z,6.36
2023-04-16T00:39:17.580Z,6.37
2023-04-16T00:41:46.092Z,6.37
2023-04-16T00:44:14.511Z,6.35
2023-04-16T00:46:43.815Z,6.32
2023-04-16T00:49:12.743Z,6.33
2023-04-16T00:51:41.302Z,6.30
2023-04-16T00:54:10.997Z,6.28
2023-04-16T00:56:39.851Z,6.26
2023-04-16T00:59:08.744Z,6.25
2023-04-16T01:01:37.421Z,6.23
2023-04-16T01:04:07.202Z,6.18
2023-04-16T01:06:36.377Z,6.15
2023-04-16T01:09:04.966Z,6.10
2023-04-16T01:11:34.686Z,6.10
2023-04-16T01:14:03.052Z,6.13
2023-04-16T01:16:31.500Z,6.11
2023-04-16T01:19:03.920Z,6.15
2023-04-16T01:21:33.630Z,6.17
2023-04-16T01:24:04.319Z,6.19
2023-04-16T01:26:32.945Z,6.20
2023-04-16T01:29:01.449Z,6.17
2023-04-16T01:31:29.912Z,6.17
2023-04-16T01:33:58.299Z,6.17
2023-04-16T01:36:32.974Z,6.10
2023-04-16T01:39:01.408Z,6.09
2023-04-16T01:41:29.768Z,6.04
2023-04-16T01:43:58.150Z,5.99
2023-04-16T01:46:29.944Z,6.00
2023-04-16T01:48:59.026Z,5.97
2023-04-16T01:51:28.117Z,5.98
2023-04-16T01:53:58.383Z,5.97
2023-04-16T01:56:26.896Z,5.95
2023-04-16T01:58:55.261Z,5.96
2023-04-16T02:01:23.891Z,5.95
2023-04-16T02:03:52.906Z,5.95
2023-04-16T02:06:21.419Z,5.97
2023-04-16T02:08:49.765Z,5.97
2023-04-16T02:11:19.531Z,5.94
2023-04-16T02:13:47.987Z,5.96
2023-04-16T02:16:18.677Z,5.95
2023-04-16T02:18:47.103Z,5.95
2023-04-16T02:21:15.495Z,6.01
2023-04-16T02:23:47.578Z,6.03
2023-04-16T02:26:16.006Z,6.05
2023-04-16T02:28:50.306Z,6.07
2023-04-16T02:31:19.700Z,6.07
2023-04-16T02:33:48.150Z,6.07
2023-04-16T02:36:16.687Z,6.06
2023-04-16T02:38:45.011Z,6.07
2023-04-16T02:41:13.408Z,6.10
2023-04-16T02:43:41.970Z,6.11
2023-04-16T02:46:11.677Z,6.09
2023-04-16T02:48:40.028Z,6.07
2023-04-16T02:51:08.491Z,6.05
2023-04-16T02:53:36.853Z,6.05
2023-04-16T02:56:08.463Z,6.07
2023-04-16T02:58:36.998Z,6.07
2023-04-16T03:01:05.691Z,6.05
2023-04-16T03:03:35.608Z,6.03
2023-04-16T03:06:05.066Z,6.02
2023-04-16T03:08:33.609Z,6.03
2023-04-16T03:11:02.097Z,6.05
2023-04-16T03:13:30.683Z,6.07
2023-04-16T03:15:59.058Z,6.08
2023-04-16T03:18:27.503Z,6.09
2023-04-16T03:20:57.253Z,6.10
2023-04-16T03:23:25.578Z,6.08
2023-04-16T03:25:53.993Z,6.05
2023-04-16T03:28:22.325Z,6.08
2023-04-16T03:30:53.822Z,6.09
2023-04-16T03:33:22.805Z,6.11
2023-04-16T03:35:58.048Z,6.13
2023-04-16T03:38:26.871Z,6.16
2023-04-16T03:40:55.290Z,6.17
2023-04-16T03:43:23.758Z,6.11
2023-04-16T03:45:52.156Z,6.13
2023-04-16T03:48:20.521Z,6.14
2023-04-16T03:50:49.138Z,6.11
2023-04-16T03:53:19.212Z,6.12
2023-04-16T03:55:51.911Z,6.11
2023-04-16T03:58:20.876Z,6.12
2023-04-16T04:00:49.371Z,6.11
2023-04-16T04:03:18.658Z,6.11
2023-04-16T04:05:47.175Z,6.08
2023-04-16T04:08:15.493Z,6.09
2023-04-16T04:10:45.896Z,6.08
2023-04-16T04:13:14.280Z,6.08
2023-04-16T04:15:42.606Z,6.08
2023-04-16T04:18:11.075Z,6.06
2023-04-16T04:20:40.895Z,6.07
2023-04-16T04:23:09.285Z,6.05
2023-04-16T04:25:37.719Z,6.06
2023-04-16T04:28:10.315Z,6.05
2023-04-16T04:30:38.735Z,6.06
2023-04-16T04:33:09.863Z,6.06
2023-04-16T04:35:38.306Z,6.09
2023-04-16T04:38:08.580Z,6.15
2023-04-16T04:40:36.963Z,6.16
2023-04-16T04:43:05.902Z,6.15
2023-04-16T04:45:37.494Z,6.15
2023-04-16T04:48:08.232Z,6.14
2023-04-16T04:50:37.997Z,6.14
2023-04-16T04:53:10.175Z,6.15
2023-04-16T04:55:38.802Z,6.14
2023-04-16T04:58:09.100Z,6.13
2023-04-16T05:00:38.825Z,6.13
2023-04-16T05:03:11.623Z,6.10
2023-04-16T05:05:40.245Z,6.14
2023-04-16T05:08:10.531Z,6.21
2023-04-16T05:10:38.921Z,6.22
2023-04-16T05:13:11.607Z,6.21
2023-04-16T05:15:41.444Z,6.21
2023-04-16T05:18:10.522Z,6.22
2023-04-16T05:20:44.077Z,6.24
2023-04-16T05:23:12.354Z,6.25
2023-04-16T05:25:40.703Z,6.27
2023-04-16T05:28:11.164Z,6.28
2023-04-16T05:30:40.914Z,6.30
2023-04-16T05:33:10.494Z,6.28
2023-04-16T05:35:38.927Z,6.29
2023-04-16T05:38:09.232Z,6.26
2023-04-16T05:40:38.161Z,6.26
2023-04-16T05:43:08.803Z,6.25
2023-04-16T05:45:40.873Z,6.21
2023-04-16T05:48:10.901Z,6.21
2023-04-16T05:50:39.409Z,6.21
2023-04-16T05:53:10.987Z,6.24
2023-04-16T05:55:39.349Z,6.24
2023-04-16T05:58:09.997Z,6.24
2023-04-16T06:00:38.452Z,6.28
2023-04-16T06:03:08.535Z,6.31
2023-04-16T06:05:38.521Z,6.30
2023-04-16T06:08:07.702Z,6.34
2023-04-16T06:10:36.342Z,6.36
2023-04-16T06:13:04.763Z,6.43
2023-04-16T06:15:33.185Z,6.44
2023-04-16T06:18:01.609Z,6.45
2023-04-16T06:20:30.026Z,6.47
2023-04-16T06:22:59.717Z,6.48
2023-04-16T06:25:28.125Z,6.53
2023-04-16T06:27:56.548Z,6.54
2023-04-16T06:30:24.923Z,6.59
2023-04-16T06:32:54.504Z,6.60
2023-04-16T06:35:23.013Z,6.61
2023-04-16T06:37:51.577Z,6.61
2023-04-16T06:40:21.310Z,6.63
2023-04-16T06:42:49.766Z,6.64
2023-04-16T06:45:18.284Z,6.67
2023-04-16T06:47:48.045Z,6.66
2023-04-16T06:50:16.588Z,6.67
2023-04-16T06:52:45.360Z,6.68
2023-04-16T06:55:13.765Z,6.74
2023-04-16T06:57:43.768Z,6.79
2023-04-16T07:00:13.382Z,6.81
2023-04-16T07:02:41.912Z,6.79
2023-04-16T07:05:10.949Z,6.82
2023-04-16T07:07:39.312Z,6.84
2023-04-16T07:10:09.980Z,6.87
2023-04-16T07:12:40.377Z,6.92
2023-04-16T07:15:11.831Z,6.98
2023-04-16T07:17:45.460Z,7.02
2023-04-16T07:20:13.903Z,7.10
2023-04-16T07:22:42.290Z,7.16
2023-04-16T07:25:15.443Z,7.20
2023-04-16T07:27:43.800Z,7.25
2023-04-16T07:30:13.673Z,7.28
2023-04-16T07:32:47.030Z,7.36
2023-04-16T07:35:15.869Z,7.40
2023-04-16T07:37:44.246Z,7.45
2023-04-16T07:40:13.318Z,7.49
2023-04-16T07:42:41.728Z,7.48
2023-04-16T07:45:13.314Z,7.44
2023-04-16T07:47:41.729Z,7.46
2023-04-16T07:50:12.033Z,7.55
2023-04-16T07:52:46.806Z,7.61
2023-04-16T07:55:15.384Z,7.64
2023-04-16T07:57:43.742Z,7.71
2023-04-16T08:00:14.246Z,7.77
2023-04-16T08:02:43.181Z,7.86
2023-04-16T08:05:12.558Z,7.91
2023-04-16T08:07:41.378Z,7.90
2023-04-16T08:10:11.661Z,7.87
2023-04-16T08:12:40.159Z,7.88
2023-04-16T08:15:11.066Z,7.91
2023-04-16T08:17:40.968Z,7.95
2023-04-16T08:20:15.762Z,7.98
2023-04-16T08:22:46.235Z,8.10
2023-04-16T08:25:14.635Z,8.16
2023-04-16T08:27:43.028Z,8.17
2023-04-16T08:30:12.189Z,8.16
2023-04-16T08:32:42.173Z,8.21
2023-04-16T08:35:11.447Z,8.32
2023-04-16T08:37:46.541Z,8.41
2023-04-16T08:40:15.129Z,8.50
2023-04-16T08:42:49.883Z,8.54
2023-04-16T08:45:19.132Z,8.56
2023-04-16T08:47:49.950Z,8.62
2023-04-16T08:50:19.643Z,8.66
2023-04-16T08:52:52.944Z,8.71
2023-04-16T08:55:26.207Z,8.77
2023-04-16T08:57:59.775Z,8.82
2023-04-16T09:00:30.893Z,8.94
2023-04-16T09:03:01.661Z,9.07
2023-04-16T09:05:30.920Z,9.06
2023-04-16T09:07:59.299Z,9.05
2023-04-16T09:10:28.516Z,9.04
2023-04-16T09:12:57.987Z,9.05
2023-04-16T09:15:27.456Z,9.14
2023-04-16T09:17:56.967Z,9.20
2023-04-16T09:20:26.980Z,9.30
2023-04-16T09:22:57.104Z,9.35
2023-04-16T09:25:26.604Z,9.39
2023-04-16T09:27:57.768Z,9.39
2023-04-16T09:30:27.449Z,9.45
2023-04-16T09:33:16.733Z,9.55
2023-04-16T09:35:50.493Z,9.63
2023-04-16T09:38:19.086Z,9.63
2023-04-16T09:40:48.448Z,9.64
2023-04-16T09:43:18.526Z,9.71
2023-04-16T09:45:51.936Z,9.79
2023-04-16T09:48:30.992Z,9.89
2023-04-16T09:51:01.325Z,9.97
2023-04-16T09:53:32.082Z,10.04
2023-04-16T09:56:01.771Z,10.10
2023-04-16T09:58:30.824Z,10.18
2023-04-16T10:01:02.420Z,10.17
2023-04-16T10:03:31.875Z,10.16
2023-04-16T10:06:10.474Z,10.15
2023-04-16T10:08:38.866Z,10.16
2023-04-16T10:11:07.591Z,10.22
2023-04-16T10:13:37.405Z,10.28
2023-04-16T10:16:06.348Z,10.27
2023-04-16T10:18:36.465Z,10.29
2023-04-16T10:21:06.746Z,10.41
2023-04-16T10:23:35.594Z,10.55
2023-04-16T10:26:04.004Z,10.66
2023-04-16T10:28:35.279Z,10.64
2023-04-16T10:31:06.612Z,10.71
2023-04-16T10:33:37.516Z,10.80
2023-04-16T10:36:14.421Z,10.77
2023-04-16T10:38:46.569Z,10.80
2023-04-16T10:41:15.236Z,10.90
2023-04-16T10:43:46.165Z,10.93
2023-04-16T10:46:22.525Z,10.98
2023-04-16T10:48:52.238Z,11.00
2023-04-16T10:51:30.084Z,11.12
2023-04-16T10:54:03.609Z,11.20
2023-04-16T10:56:34.635Z,11.29
2023-04-16T10:59:06.036Z,11.35
2023-04-16T11:01:35.918Z,11.36
2023-04-16T11:04:29.710Z,11.39
2023-04-16T11:07:16.608Z,11.47
2023-04-16T11:09:52.228Z,11.54
2023-04-16T11:12:22.495Z,11.56
2023-04-16T11:14:52.572Z,11.62
2023-04-16T11:17:22.429Z,11.69
2023-04-16T11:19:53.518Z,11.64
2023-04-16T11:22:23.700Z,11.68
2023-04-16T11:24:56.100Z,11.78
2023-04-16T11:27:24.904Z,11.87
2023-04-16T11:30:00.741Z,11.94
2023-04-16T11:32:32.027Z,11.97
2023-04-16T11:35:03.617Z,11.95
2023-04-16T11:37:38.014Z,11.93
2023-04-16T11:40:08.212Z,11.91
2023-04-16T11:42:37.886Z,11.95
2023-04-16T11:45:07.556Z,12.00
2023-04-16T11:47:45.887Z,12.04
2023-04-16T11:50:21.946Z,12.00
2023-04-16T11:52:53.477Z,11.93
2023-04-16T11:55:22.294Z,11.92
2023-04-16T11:57:52.210Z,12.02
2023-04-16T12:00:24.537Z,12.05
2023-04-16T12:02:55.460Z,12.02
2023-04-16T12:05:28.675Z,12.07
2023-04-16T12:08:05.130Z,12.00
2023-04-16T12:10:36.233Z,11.94
2023-04-16T12:13:13.975Z,11.84
2023-04-16T12:15:47.073Z,11.93
2023-04-16T12:18:16.334Z,11.98
2023-04-16T12:20:45.628Z,12.08
2023-04-16T12:23:26.239Z,12.17
2023-04-16T12:25:55.218Z,12.16
2023-04-16T12:28:31.970Z,12.18
2023-04-16T12:31:01.233Z,12.15
2023-04-16T12:33:30.358Z,12.17
2023-04-16T12:35:59.181Z,12.24
2023-04-16T12:38:29.935Z,12.18
2023-04-16T12:40:58.459Z,12.05
2023-04-16T12:43:27.088Z,12.01
2023-04-16T12:45:55.492Z,12.06
2023-04-16T12:48:24.299Z,12.12
2023-04-16T12:50:55.175Z,12.07
2023-04-16T12:53:23.657Z,12.05
2023-04-16T12:55:53.358Z,12.10
2023-04-16T12:58:21.802Z,12.29
2023-04-16T13:00:50.471Z,12.53
2023-04-16T13:03:21.029Z,12.56
2023-04-16T13:05:50.211Z,12.54
2023-04-16T13:08:18.773Z,12.61
2023-04-16T13:10:47.898Z,12.63
2023-04-16T13:13:17.918Z,12.63
2023-04-16T13:15:46.483Z,12.68
2023-04-16T13:18:16.422Z,12.71
2023-04-16T13:20:44.987Z,12.70
2023-04-16T13:23:15.745Z,12.63
2023-04-16T13:25:44.354Z,12.57
2023-04-16T13:28:13.210Z,12.50
2023-04-16T13:30:43.048Z,12.55
2023-04-16T13:33:15.450Z,12.49
2023-04-16T13:35:43.841Z,12.35
2023-04-16T13:38:14.133Z,12.29
2023-04-16T13:40:42.550Z,12.33
2023-04-16T13:43:12.723Z,12.38
2023-04-16T13:45:42.461Z,12.37
2023-04-16T13:48:12.722Z,12.34
2023-04-16T13:50:41.147Z,12.29
2023-04-16T13:53:09.618Z,12.23
2023-04-16T13:55:38.184Z,12.11
2023-04-16T13:58:07.218Z,12.02
2023-04-16T14:00:36.024Z,11.97
2023-04-16T14:03:06.920Z,11.96
2023-04-16T14:05:35.404Z,11.94
2023-04-16T14:08:03.778Z,11.94
2023-04-16T14:10:32.799Z,11.96
2023-04-16T14:13:01.284Z,11.95
2023-04-16T14:15:29.993Z,11.94
2023-04-16T14:17:59.382Z,11.92
2023-04-16T14:20:29.170Z,11.91
2023-04-16T14:22:57.619Z,11.92
2023-04-16T14:25:26.286Z,12.01
2023-04-16T14:27:55.109Z,12.08
2023-04-16T14:30:23.472Z,12.08
2023-04-16T14:32:52.086Z,12.15
2023-04-16T14:35:21.423Z,12.20
2023-04-16T14:37:57.036Z,12.20
2023-04-16T14:40:25.490Z,12.13
2023-04-16T14:42:53.885Z,12.12
2023-04-16T14:45:25.387Z,12.10
2023-04-16T14:47:53.943Z,12.03
2023-04-16T14:50:22.317Z,12.00
2023-04-16T14:52:51.797Z,12.05
2023-04-16T14:55:21.667Z,11.98
2023-04-16T14:57:53.305Z,12.08
2023-04-16T15:00:22.904Z,12.25
2023-04-16T15:02:51.694Z,12.37
2023-04-16T15:05:20.450Z,12.32
2023-04-16T15:07:49.805Z,12.11
2023-04-16T15:10:18.260Z,12.07
2023-04-16T15:12:49.144Z,12.25
2023-04-16T15:15:17.676Z,12.31
2023-04-16T15:17:57.067Z,12.19
2023-04-16T15:20:27.843Z,12.19
2023-04-16T15:22:56.847Z,12.07
2023-04-16T15:25:25.624Z,12.00
2023-04-16T15:27:55.919Z,11.90
2023-04-16T15:30:29.293Z,11.78
2023-04-16T15:32:57.903Z,11.70
2023-04-16T15:35:26.449Z,11.69
2023-04-16T15:37:55.319Z,11.69
2023-04-16T15:40:23.853Z,11.60
2023-04-16T15:42:52.365Z,11.29
2023-04-16T15:45:22.558Z,10.90
2023-04-16T15:47:51.589Z,10.75
2023-04-16T15:50:20.839Z,10.70
2023-04-16T15:52:49.310Z,10.56
2023-04-16T15:55:19.476Z,10.48
2023-04-16T15:57:47.830Z,10.35
2023-04-16T16:00:19.762Z,10.43
2023-04-16T16:02:49.635Z,10.54
2023-04-16T16:05:18.669Z,10.56
2023-04-16T16:07:47.204Z,10.48
2023-04-16T16:10:17.041Z,10.41
2023-04-16T16:12:46.761Z,10.30
2023-04-16T16:15:16.690Z,10.32
2023-04-16T16:17:45.163Z,10.27
2023-04-16T16:20:15.951Z,10.29
2023-04-16T16:22:46.502Z,10.31
2023-04-16T16:25:16.680Z,10.31
2023-04-16T16:27:45.101Z,10.30
2023-04-16T16:30:15.420Z,10.19
2023-04-16T16:32:44.468Z,10.14
2023-04-16T16:35:15.145Z,10.07
2023-04-16T16:37:43.731Z,10.10
2023-04-16T16:40:12.709Z,10.10
2023-04-16T16:42:41.217Z,10.03
2023-04-16T16:45:11.040Z,9.98
2023-04-16T16:47:39.731Z,9.99
2023-04-16T16:50:11.390Z,9.94
2023-04-16T16:52:41.307Z,9.95
2023-04-16T16:55:11.151Z,9.98
2023-04-16T16:57:41.205Z,9.98
2023-04-16T17:00:17.453Z,9.91
2023-04-16T17:02:45.979Z,9.89
2023-04-16T17:05:17.224Z,9.86
2023-04-16T17:07:47.221Z,9.85
2023-04-16T17:10:20.140Z,9.80
2023-04-16T17:12:51.168Z,9.74
2023-04-16T17:15:21.747Z,9.71
2023-04-16T17:17:50.929Z,9.66
2023-04-16T17:20:20.083Z,9.59
2023-04-16T17:22:51.171Z,9.52
2023-04-16T17:25:19.770Z,9.43
2023-04-16T17:27:55.095Z,9.37
2023-04-16T17:30:25.868Z,9.30
2023-04-16T17:32:54.456Z,9.25
2023-04-16T17:35:23.133Z,9.20
2023-04-16T17:37:52.950Z,9.15
2023-04-16T17:40:21.406Z,9.16
2023-04-16T17:42:51.313Z,9.10
2023-04-16T17:45:19.961Z,9.03
2023-04-16T17:47:48.465Z,9.00
2023-04-16T17:50:17.016Z,8.97
2023-04-16T17:52:47.228Z,8.97
2023-04-16T17:55:17.006Z,8.92
2023-04-16T17:57:45.844Z,8.90
2023-04-16T18:00:16.141Z,8.79
2023-04-16T18:02:45.408Z,8.75
2023-04-16T18:05:14.004Z,8.72
2023-04-16T18:07:43.761Z,8.68
2023-04-16T18:10:12.224Z,8.65
2023-04-16T18:12:42.505Z,8.66
2023-04-16T18:15:11.906Z,8.62
2023-04-16T18:17:40.579Z,8.61
2023-04-16T18:20:11.754Z,8.59
2023-04-16T18:22:40.180Z,8.59
2023-04-16T18:25:09.177Z,8.64
2023-04-16T18:27:37.719Z,8.72
2023-04-16T18:32:46.814Z,8.83
2023-04-16T18:35:23.638Z,8.86
2023-04-16T18:37:52.253Z,8.85
2023-04-16T18:40:20.833Z,8.85
2023-04-16T18:42:49.186Z,8.84
2023-04-16T18:45:21.997Z,8.84
2023-04-16T18:47:50.905Z,8.84
2023-04-16T18:50:19.543Z,8.86
2023-04-16T18:52:47.961Z,8.90
2023-04-16T18:55:17.383Z,8.93
2023-04-16T18:57:45.985Z,8.94
2023-04-16T19:00:16.667Z,8.94
2023-04-16T19:02:56.450Z,8.98
2023-04-16T19:05:25.030Z,8.98
2023-04-16T19:07:54.225Z,9.00
2023-04-16T19:10:22.596Z,9.00
2023-04-16T19:12:50.996Z,9.01
2023-04-16T19:15:19.498Z,9.02
2023-04-16T19:17:49.463Z,9.04
2023-04-16T19:20:20.242Z,9.03
2023-04-16T19:22:48.667Z,8.96
2023-04-16T19:25:19.042Z,8.89
2023-04-16T19:27:47.525Z,8.86
2023-04-16T19:30:17.567Z,8.90
2023-04-16T19:32:46.420Z,8.94
2023-04-16T19:35:15.095Z,8.99
2023-04-16T19:37:44.988Z,8.99
2023-04-16T19:40:13.584Z,9.00
2023-04-16T19:42:41.972Z,8.91
2023-04-16T19:45:10.613Z,8.86
2023-04-16T19:47:39.110Z,8.88
2023-04-16T19:50:08.652Z,8.93
2023-04-16T19:52:38.984Z,8.95
2023-04-16T19:55:10.513Z,8.98
2023-04-16T19:57:38.927Z,8.98
2023-04-16T20:00:15.112Z,8.97
2023-04-16T20:02:44.266Z,8.97
2023-04-16T20:05:12.714Z,8.96
2023-04-16T20:07:41.174Z,8.93
2023-04-16T20:10:11.843Z,8.90
2023-04-16T20:12:51.006Z,8.89
2023-04-16T20:15:19.439Z,8.92
2023-04-16T20:17:47.935Z,8.93
2023-04-16T20:20:17.783Z,8.94
2023-04-16T20:22:46.214Z,8.89
2023-04-16T20:25:19.140Z,8.86
2023-04-16T20:27:47.693Z,8.87
2023-04-16T20:30:17.399Z,8.89
2023-04-16T20:32:45.924Z,8.89
2023-04-16T20:35:14.340Z,8.87
2023-04-16T20:37:43.052Z,8.84
2023-04-16T20:40:13.914Z,8.84
2023-04-16T20:42:46.082Z,8.85
2023-04-16T20:45:14.830Z,8.87
2023-04-16T20:47:44.438Z,8.89
2023-04-16T20:50:13.610Z,8.91
2023-04-16T20:52:52.044Z,8.94
2023-04-16T20:55:20.809Z,8.93
2023-04-16T20:57:50.947Z,8.93
2023-04-16T21:00:20.843Z,8.95
2023-04-16T21:02:49.334Z,8.97
2023-04-16T21:05:19.030Z,8.96
2023-04-16T21:07:47.901Z,8.93
2023-04-16T21:10:20.202Z,8.94
2023-04-16T21:13:00.248Z,8.93
2023-04-16T21:15:28.702Z,8.95
2023-04-16T21:17:57.146Z,8.96
2023-04-16T21:20:25.601Z,8.96
2023-04-16T21:22:56.826Z,8.95
2023-04-16T21:25:25.489Z,8.88
2023-04-16T21:27:53.878Z,8.79
2023-04-16T21:30:23.885Z,8.65
2023-04-16T21:32:52.346Z,8.53
2023-04-16T21:35:21.061Z,8.48
2023-04-16T21:37:53.800Z,8.48
2023-04-16T21:40:22.405Z,8.54
2023-04-16T21:42:51.003Z,8.58
2023-04-16T21:45:20.770Z,8.64
2023-04-16T21:47:50.613Z,8.67
2023-04-16T21:50:21.408Z,8.60
2023-04-16T21:52:49.872Z,8.51
2023-04-16T21:55:25.926Z,8.45
2023-04-16T21:57:54.354Z,8.44
2023-04-16T22:00:22.758Z,8.46
2023-04-16T22:02:55.922Z,8.49
2023-04-16T22:05:24.548Z,8.51
2023-04-16T22:07:53.789Z,8.50
2023-04-16T22:10:22.768Z,8.50
2023-04-16T22:12:53.626Z,8.51
2023-04-16T22:15:22.245Z,8.53
2023-04-16T22:17:50.788Z,8.51
2023-04-16T22:20:22.195Z,8.48
2023-04-16T22:22:52.726Z,8.44
2023-04-16T22:25:21.627Z,8.39
2023-04-16T22:27:49.991Z,8.37
2023-04-16T22:30:21.558Z,8.36
2023-04-16T22:32:51.673Z,8.35
2023-04-16T22:35:22.325Z,8.37
2023-04-16T22:37:50.711Z,8.40
2023-04-16T22:40:21.635Z,8.40
2023-04-16T22:42:50.277Z,8.41
2023-04-16T22:45:19.235Z,8.37
2023-04-16T22:47:47.691Z,8.37
2023-04-16T22:50:16.098Z,8.34
2023-04-16T22:52:45.838Z,8.31
2023-04-16T22:55:14.228Z,8.28
2023-04-16T22:57:42.722Z,8.26
2023-04-16T23:00:15.999Z,8.23
2023-04-16T23:02:51.644Z,8.23
2023-04-16T23:05:21.825Z,8.27
2023-04-16T23:07:51.571Z,8.27
2023-04-16T23:10:21.968Z,8.26
2023-04-16T23:12:50.374Z,8.24
2023-04-16T23:15:21.527Z,8.23
2023-04-16T23:17:49.980Z,8.23
2023-04-16T23:20:21.484Z,8.21
2023-04-16T23:22:52.734Z,8.19
2023-04-16T23:25:23.612Z,8.16
2023-04-16T23:27:52.069Z,8.16
2023-04-16T23:30:22.237Z,8.12
2023-04-16T23:32:50.510Z,8.09
2023-04-16T23:35:22.802Z,8.01
2023-04-16T23:38:02.800Z,7.90
2023-04-16T23:40:31.591Z,7.88
2023-04-16T23:42:59.974Z,7.87
2023-04-16T23:45:28.330Z,7.89
2023-04-16T23:47:56.766Z,7.86
2023-04-16T23:50:25.220Z,7.82
2023-04-16T23:53:00.227Z,7.82
2023-04-16T23:55:29.936Z,7.78
2023-04-16T23:57:58.270Z,7.65
